< < Back
Terminal Aerodrome Forecast


Current Version              Previous Versions:   1  2  3  4  5  6  7  8  9  

Terminal Aerodrome Forecast

711
FTUS42 KMLB 302300 RRA
TAFDAB
TAF
KDAB 302354Z 3100/3124 VRB03KT P6SM FEW250
     FM311400 12004KT P6SM SCT025
     FM311800 11008KT P6SM SCT035=



Latest METAR

790
SAUS80 KWBC 311900 RRA
MTRDAB
METAR KDAB 311853Z 08009KT 10SM FEW025 SCT055 SCT150 31/24 A2997 RMK AO2
SLP149 CB DSNT S T03110244


USA.gov is the U.S. government's official web portal to all federal, state and local government web resources and services.